Archival Weather

Chicago O'Hare International

Chicago, Illinois (KORD)

Report from: Wednesday, December 28, 2022 3:51 PM CST
Current time: Saturday, June 22, 2024 4:33 AM CDT

Current weather – Weather history – Daily summaries
Weather forecast

Temperature6.7°C (44.1°F)
Wind chill2.6°C (36.7°F)
Dew point-1.1°C (30.0°F)
Winds 14 kts (7.2 m/s, 16.1 mph) South (180°)
Wind gusts 21 kts (10.8 m/s, 24.2 mph)
Peak wind 26 kts (13.4 m/s, 29.9 mph) South (180°) at 21:02
Visibility10 mi. (16.1 km)
Clouds Few clouds 12,000 ft. (3,658 m)
Ceiling: Broken clouds 25,000 ft. (7,620 m)
Overcast 35,000 ft. (10,668 m)
Altimeter29.72 in.Hg (1006 mB)
Relative humidity57 %
Density altitude-703 ft. (-214 m)
Sea-level pressure100.7 kPa (1007 mB, 29.74 in.Hg)
Remarks Automated weather observing station with precipitation discriminator
Flight conditions Visual Meteorological Conditions
Raw dataKORD 282151Z 18014G21KT 10SM FEW120 BKN250 OVC350 07/M01 A2972 RMK AO2 PK WND 18026/2102 SLP071 T00671011
An error has occurred. This application may no longer respond until reloaded. Reload 🗙